Historique des mesures à Cassis (13260), France
Quotidien Résumé Mars 2, 2017 Unités:  Métrique    US   Métrique/US
« Précédent (Jour)
Suivant (Jour) »
Quotidien Hebdomadaire Mensuel Annuel Période au choix
  Maximum: Minimum: Moyenne:
Température: TemperatureC °C 9.8 °C 12.8 °C
Point de rosée: DewpointC °C 7.0 °C 8.1 °C
Humidité: Humidity % 62 % 70 %
Vitesse du vent: 0 km/h 0 km/h 8.4 km/h
Rafales: 0 km/h - -
Vent:- - South
Pression: PressurehPa hPa 1013.4 hPa -
Précipitations: 0.0 mm    
Historical Graphs
 
 
Mesures pour : Mars 2, 2017
Heure Temperature Point de rosée Pression Vent Vitesse du vent Rafales Humidité Pluie (par heure) Conditions
TemperatureC °C DewpointC °C PressurehPa hPa Calm     Humidity % HourlyPrecipMM mm SoftwareType W/m2
00:11 12.9 °C 8.6 °C 1015.8 hPa Calm     75 % 0.0 mm open2300-1.11 W/m2
01:10 12.3 °C 8.2 °C 1015.8 hPa NNW 12.7 km/h 12.7 km/h 76 % 0.0 mm open2300-1.11 W/m2
02:11 11.2 °C 7.7 °C 1015.8 hPa WNW 24.3 km/h 24.3 km/h 79 % 0.0 mm open2300-1.11 W/m2
03:10 10.9 °C 7.6 °C 1015.5 hPa North 5.6 km/h 5.6 km/h 80 % 0.0 mm open2300-1.11 W/m2
04:11 10.4 °C 7.4 °C 1014.8 hPa North 7.6 km/h 21.6 km/h 82 % 0.0 mm open2300-1.11 W/m2
05:10 10.3 °C 7.5 °C 1014.4 hPa NW 5.1 km/h 8 km/h 83 % 0.0 mm open2300-1.11 W/m2
06:11 9.8 °C 7.0 °C 1014.4 hPa North 5.1 km/h 11.6 km/h 83 % 0.0 mm open2300-1.11 W/m2
07:10 10.2 °C 7.2 °C 1014.8 hPa Calm   12.2 km/h 82 % 0.0 mm open2300-1.11 W/m2
08:11 10.6 °C 7.3 °C 1014.8 hPa Calm     80 % 0.0 mm open2300-1.11 W/m2
09:10 12.8 °C 8.3 °C 1015.5 hPa West 6.4 km/h 23.8 km/h 74 % 0.0 mm open2300-1.11 W/m2
10:11 13.9 °C 8.3 °C 1015.5 hPa Calm   12.7 km/h 69 % 0.0 mm open2300-1.11 W/m2
11:10 15.2 °C 8.7 °C 1015.5 hPa WNW 26.2 km/h 26.2 km/h 65 % 0.0 mm open2300-1.11 W/m2
12:11 16.4 °C 9.1 °C 1015.1 hPa NNE 9.8 km/h 12.7 km/h 62 % 0.0 mm open2300-1.11 W/m2
13:10 16.7 °C 9.4 °C 1014.4 hPa WNW 16.3 km/h 16.3 km/h 62 % 0.0 mm open2300-1.11 W/m2
14:11 16.5 °C 9.4 °C 1014.1 hPa North 5.1 km/h 34.1 km/h 63 % 0.0 mm open2300-1.11 W/m2
15:10 16.4 °C 10.1 °C 1013.8 hPa West 8.9 km/h 14.5 km/h 66 % 0.0 mm open2300-1.11 W/m2
16:11 16.3 °C 9.7 °C 1013.8 hPa NW 30.7 km/h 30.7 km/h 65 % 0.0 mm open2300-1.11 W/m2
17:10 16.1 °C 9.3 °C 1013.4 hPa North 15 km/h 27.2 km/h 64 % 0.0 mm open2300-1.11 W/m2
18:11 15.1 °C 8.8 °C 1013.8 hPa NW 10.3 km/h 10.3 km/h 66 % 0.0 mm open2300-1.11 W/m2
19:10 14.1 °C 8.9 °C 1014.1 hPa WNW 18.7 km/h 23 km/h 71 % 0.0 mm open2300-1.11 W/m2
20:11 13.4 °C 8.6 °C 1014.4 hPa Calm     73 % 0.0 mm open2300-1.11 W/m2
21:10 13.3 °C 8.6 °C 1014.1 hPa Calm     73 % 0.0 mm open2300-1.11 W/m2
22:11 12.6 °C 8.1 °C 1014.1 hPa Calm     74 % 0.0 mm open2300-1.11 W/m2
23:10 12.6 °C 8.3 °C 1014.1 hPa Calm     75 % 0.0 mm open2300-1.11 W/m2
Observations météo à CASSIS
WU-History script by Weather Underground - 1 mb